sensor_id;sensor_type;location;lat;lon;timestamp;temperature;humidity
20856;DHT22;63058;49.424;8.420;2023-07-02T00:02:21;21.10;84.60
20856;DHT22;63058;49.424;8.420;2023-07-02T00:04:47;21.00;84.20
20856;DHT22;63058;49.424;8.420;2023-07-02T00:07:12;21.10;84.40
20856;DHT22;63058;49.424;8.420;2023-07-02T00:09:40;21.10;84.20
20856;DHT22;63058;49.424;8.420;2023-07-02T00:12:06;21.10;84.10
20856;DHT22;63058;49.424;8.420;2023-07-02T00:14:32;21.10;84.10
20856;DHT22;63058;49.424;8.420;2023-07-02T00:16:57;21.10;84.10
20856;DHT22;63058;49.424;8.420;2023-07-02T00:19:23;21.10;84.40
20856;DHT22;63058;49.424;8.420;2023-07-02T00:21:48;21.10;84.40
20856;DHT22;63058;49.424;8.420;2023-07-02T00:24:14;21.10;84.40
20856;DHT22;63058;49.424;8.420;2023-07-02T00:26:41;21.10;84.30
20856;DHT22;63058;49.424;8.420;2023-07-02T00:29:09;21.10;84.10
20856;DHT22;63058;49.424;8.420;2023-07-02T00:31:35;21.10;84.10
20856;DHT22;63058;49.424;8.420;2023-07-02T00:34:01;21.10;83.90
20856;DHT22;63058;49.424;8.420;2023-07-02T00:36:27;21.10;83.60
20856;DHT22;63058;49.424;8.420;2023-07-02T00:38:53;21.10;83.10
20856;DHT22;63058;49.424;8.420;2023-07-02T00:41:19;21.00;82.80
20856;DHT22;63058;49.424;8.420;2023-07-02T00:43:44;20.90;82.60
20856;DHT22;63058;49.424;8.420;2023-07-02T00:46:16;20.90;82.50
20856;DHT22;63058;49.424;8.420;2023-07-02T00:48:49;20.80;82.00
20856;DHT22;63058;49.424;8.420;2023-07-02T00:51:20;20.70;82.40
20856;DHT22;63058;49.424;8.420;2023-07-02T00:53:47;20.60;82.00
20856;DHT22;63058;49.424;8.420;2023-07-02T00:56:13;20.60;82.40
20856;DHT22;63058;49.424;8.420;2023-07-02T00:58:41;20.50;82.50
20856;DHT22;63058;49.424;8.420;2023-07-02T01:01:17;20.40;82.60
20856;DHT22;63058;49.424;8.420;2023-07-02T01:03:57;20.50;83.00
20856;DHT22;63058;49.424;8.420;2023-07-02T01:06:25;20.40;82.40
20856;DHT22;63058;49.424;8.420;2023-07-02T01:08:56;20.40;83.30
20856;DHT22;63058;49.424;8.420;2023-07-02T01:11:25;20.40;83.60
20856;DHT22;63058;49.424;8.420;2023-07-02T01:13:53;20.40;83.60
20856;DHT22;63058;49.424;8.420;2023-07-02T01:16:20;20.40;83.50
20856;DHT22;63058;49.424;8.420;2023-07-02T01:18:48;20.50;83.40
20856;DHT22;63058;49.424;8.420;2023-07-02T01:21:16;20.40;83.10
20856;DHT22;63058;49.424;8.420;2023-07-02T01:23:42;20.40;83.10
20856;DHT22;63058;49.424;8.420;2023-07-02T01:26:08;20.40;83.00
20856;DHT22;63058;49.424;8.420;2023-07-02T01:28:36;20.40;83.60
20856;DHT22;63058;49.424;8.420;2023-07-02T01:31:04;20.30;82.60
20856;DHT22;63058;49.424;8.420;2023-07-02T01:33:31;20.30;82.60
20856;DHT22;63058;49.424;8.420;2023-07-02T01:35:56;20.20;82.40
20856;DHT22;63058;49.424;8.420;2023-07-02T01:38:22;20.20;82.20
20856;DHT22;63058;49.424;8.420;2023-07-02T01:40:47;20.20;82.30
20856;DHT22;63058;49.424;8.420;2023-07-02T01:43:13;20.20;82.20
20856;DHT22;63058;49.424;8.420;2023-07-02T01:45:40;20.10;82.20
20856;DHT22;63058;49.424;8.420;2023-07-02T01:48:06;20.10;82.30
20856;DHT22;63058;49.424;8.420;2023-07-02T01:50:31;20.10;82.40
20856;DHT22;63058;49.424;8.420;2023-07-02T01:52:57;20.10;82.30
20856;DHT22;63058;49.424;8.420;2023-07-02T01:55:22;20.10;82.20
20856;DHT22;63058;49.424;8.420;2023-07-02T01:57:48;20.10;82.20
20856;DHT22;63058;49.424;8.420;2023-07-02T02:00:14;20.10;82.00
20856;DHT22;63058;49.424;8.420;2023-07-02T02:02:39;20.10;82.10
20856;DHT22;63058;49.424;8.420;2023-07-02T02:05:05;20.10;81.90
20856;DHT22;63058;49.424;8.420;2023-07-02T02:07:31;20.10;81.80
20856;DHT22;63058;49.424;8.420;2023-07-02T02:09:57;20.10;81.70
20856;DHT22;63058;49.424;8.420;2023-07-02T02:12:23;20.10;81.60
20856;DHT22;63058;49.424;8.420;2023-07-02T02:14:48;20.10;81.40
20856;DHT22;63058;49.424;8.420;2023-07-02T02:17:14;20.10;81.20
20856;DHT22;63058;49.424;8.420;2023-07-02T02:19:40;20.10;80.90
20856;DHT22;63058;49.424;8.420;2023-07-02T02:22:05;20.10;80.80
20856;DHT22;63058;49.424;8.420;2023-07-02T02:24:31;20.10;80.90
20856;DHT22;63058;49.424;8.420;2023-07-02T02:26:56;20.10;80.90
20856;DHT22;63058;49.424;8.420;2023-07-02T02:29:22;20.00;80.70
20856;DHT22;63058;49.424;8.420;2023-07-02T02:31:47;20.00;80.70
20856;DHT22;63058;49.424;8.420;2023-07-02T02:34:13;20.00;80.60
20856;DHT22;63058;49.424;8.420;2023-07-02T02:36:38;19.90;80.40
20856;DHT22;63058;49.424;8.420;2023-07-02T02:39:04;19.90;80.00
20856;DHT22;63058;49.424;8.420;2023-07-02T02:41:30;19.90;79.80
20856;DHT22;63058;49.424;8.420;2023-07-02T02:43:56;19.90;79.80
20856;DHT22;63058;49.424;8.420;2023-07-02T02:46:25;19.80;79.70
20856;DHT22;63058;49.424;8.420;2023-07-02T02:48:51;19.80;79.60
20856;DHT22;63058;49.424;8.420;2023-07-02T02:51:20;19.70;79.70
20856;DHT22;63058;49.424;8.420;2023-07-02T02:53:45;19.70;80.40
20856;DHT22;63058;49.424;8.420;2023-07-02T02:56:11;19.70;79.80
20856;DHT22;63058;49.424;8.420;2023-07-02T02:58:37;19.60;79.60
20856;DHT22;63058;49.424;8.420;2023-07-02T03:01:02;19.60;79.60
20856;DHT22;63058;49.424;8.420;2023-07-02T03:03:38;19.60;79.80
20856;DHT22;63058;49.424;8.420;2023-07-02T03:06:05;19.50;79.70
20856;DHT22;63058;49.424;8.420;2023-07-02T03:08:31;19.50;79.90
20856;DHT22;63058;49.424;8.420;2023-07-02T03:10:56;19.40;79.90
20856;DHT22;63058;49.424;8.420;2023-07-02T03:13:22;19.40;80.80
20856;DHT22;63058;49.424;8.420;2023-07-02T03:15:48;19.30;80.20
20856;DHT22;63058;49.424;8.420;2023-07-02T03:18:13;19.30;80.40
20856;DHT22;63058;49.424;8.420;2023-07-02T03:20:39;19.20;80.50
20856;DHT22;63058;49.424;8.420;2023-07-02T03:23:04;19.20;80.50
20856;DHT22;63058;49.424;8.420;2023-07-02T03:25:30;19.20;80.70
20856;DHT22;63058;49.424;8.420;2023-07-02T03:27:56;19.20;80.90
20856;DHT22;63058;49.424;8.420;2023-07-02T03:30:21;19.10;80.80
20856;DHT22;63058;49.424;8.420;2023-07-02T03:32:47;19.00;80.70
20856;DHT22;63058;49.424;8.420;2023-07-02T03:35:12;19.00;80.70
20856;DHT22;63058;49.424;8.420;2023-07-02T03:37:38;19.00;80.90
20856;DHT22;63058;49.424;8.420;2023-07-02T03:40:07;19.00;80.90
20856;DHT22;63058;49.424;8.420;2023-07-02T03:42:33;18.90;81.00
20856;DHT22;63058;49.424;8.420;2023-07-02T03:44:59;18.90;81.20
20856;DHT22;63058;49.424;8.420;2023-07-02T03:47:24;18.90;81.20
20856;DHT22;63058;49.424;8.420;2023-07-02T03:49:50;18.90;81.20
20856;DHT22;63058;49.424;8.420;2023-07-02T03:52:16;18.90;81.50
20856;DHT22;63058;49.424;8.420;2023-07-02T03:54:41;18.90;81.40
20856;DHT22;63058;49.424;8.420;2023-07-02T03:57:07;18.90;81.50
20856;DHT22;63058;49.424;8.420;2023-07-02T03:59:32;18.90;81.40
20856;DHT22;63058;49.424;8.420;2023-07-02T04:01:58;18.90;81.40
20856;DHT22;63058;49.424;8.420;2023-07-02T04:04:23;18.90;81.50
20856;DHT22;63058;49.424;8.420;2023-07-02T04:06:49;18.90;81.60
20856;DHT22;63058;49.424;8.420;2023-07-02T04:09:14;18.90;81.70
20856;DHT22;63058;49.424;8.420;2023-07-02T04:11:40;18.90;81.90
20856;DHT22;63058;49.424;8.420;2023-07-02T04:14:06;18.90;82.20
20856;DHT22;63058;49.424;8.420;2023-07-02T04:16:31;18.90;82.30
20856;DHT22;63058;49.424;8.420;2023-07-02T04:18:57;19.00;82.80
20856;DHT22;63058;49.424;8.420;2023-07-02T04:21:22;19.00;83.10
20856;DHT22;63058;49.424;8.420;2023-07-02T04:23:48;19.00;83.20
20856;DHT22;63058;49.424;8.420;2023-07-02T04:26:13;19.10;83.10
20856;DHT22;63058;49.424;8.420;2023-07-02T04:28:39;19.20;83.20
20856;DHT22;63058;49.424;8.420;2023-07-02T04:31:04;19.30;82.90
20856;DHT22;63058;49.424;8.420;2023-07-02T04:33:30;19.30;82.70
20856;DHT22;63058;49.424;8.420;2023-07-02T04:36:03;19.40;82.80
20856;DHT22;63058;49.424;8.420;2023-07-02T04:38:29;19.40;82.50
20856;DHT22;63058;49.424;8.420;2023-07-02T04:40:55;19.50;82.50
20856;DHT22;63058;49.424;8.420;2023-07-02T04:43:23;19.60;82.50
20856;DHT22;63058;49.424;8.420;2023-07-02T04:45:49;19.60;82.50
20856;DHT22;63058;49.424;8.420;2023-07-02T04:48:14;19.70;82.50
20856;DHT22;63058;49.424;8.420;2023-07-02T04:50:42;19.70;82.50
20856;DHT22;63058;49.424;8.420;2023-07-02T04:53:07;19.80;82.30
20856;DHT22;63058;49.424;8.420;2023-07-02T04:55:33;19.80;82.30
20856;DHT22;63058;49.424;8.420;2023-07-02T04:57:58;19.80;82.10
20856;DHT22;63058;49.424;8.420;2023-07-02T05:00:24;19.90;82.10
20856;DHT22;63058;49.424;8.420;2023-07-02T05:02:49;19.90;81.80
20856;DHT22;63058;49.424;8.420;2023-07-02T05:05:16;20.00;81.90
20856;DHT22;63058;49.424;8.420;2023-07-02T05:07:41;20.00;81.50
20856;DHT22;63058;49.424;8.420;2023-07-02T05:10:07;20.00;81.60
20856;DHT22;63058;49.424;8.420;2023-07-02T05:12:33;20.10;81.50
20856;DHT22;63058;49.424;8.420;2023-07-02T05:14:59;20.10;81.30
20856;DHT22;63058;49.424;8.420;2023-07-02T05:17:24;20.10;81.20
20856;DHT22;63058;49.424;8.420;2023-07-02T05:19:50;20.10;80.90
20856;DHT22;63058;49.424;8.420;2023-07-02T05:22:15;20.10;80.70
20856;DHT22;63058;49.424;8.420;2023-07-02T05:24:41;20.10;80.70
20856;DHT22;63058;49.424;8.420;2023-07-02T05:27:06;20.10;80.70
20856;DHT22;63058;49.424;8.420;2023-07-02T05:29:32;20.10;80.90
20856;DHT22;63058;49.424;8.420;2023-07-02T05:31:58;20.10;80.70
20856;DHT22;63058;49.424;8.420;2023-07-02T05:34:23;20.10;80.80
20856;DHT22;63058;49.424;8.420;2023-07-02T05:36:49;20.10;80.80
20856;DHT22;63058;49.424;8.420;2023-07-02T05:39:14;20.10;80.60
20856;DHT22;63058;49.424;8.420;2023-07-02T05:41:40;20.10;80.50
20856;DHT22;63058;49.424;8.420;2023-07-02T05:44:05;20.20;80.40
20856;DHT22;63058;49.424;8.420;2023-07-02T05:46:31;20.10;80.50
20856;DHT22;63058;49.424;8.420;2023-07-02T05:48:56;20.20;79.60
20856;DHT22;63058;49.424;8.420;2023-07-02T05:51:23;20.20;80.10
20856;DHT22;63058;49.424;8.420;2023-07-02T05:53:49;20.20;80.10
20856;DHT22;63058;49.424;8.420;2023-07-02T05:56:16;20.30;80.00
20856;DHT22;63058;49.424;8.420;2023-07-02T05:58:41;20.30;79.50
20856;DHT22;63058;49.424;8.420;2023-07-02T06:01:07;20.30;80.00
20856;DHT22;63058;49.424;8.420;2023-07-02T06:03:32;20.30;80.10
20856;DHT22;63058;49.424;8.420;2023-07-02T06:05:58;20.30;80.00
20856;DHT22;63058;49.424;8.420;2023-07-02T06:08:24;20.40;79.70
20856;DHT22;63058;49.424;8.420;2023-07-02T06:10:49;20.40;79.70
20856;DHT22;63058;49.424;8.420;2023-07-02T06:13:15;20.50;79.40
20856;DHT22;63058;49.424;8.420;2023-07-02T06:15:41;20.50;79.20
20856;DHT22;63058;49.424;8.420;2023-07-02T06:18:06;20.60;79.20
20856;DHT22;63058;49.424;8.420;2023-07-02T06:20:32;20.60;79.80
20856;DHT22;63058;49.424;8.420;2023-07-02T06:22:57;20.70;78.90
20856;DHT22;63058;49.424;8.420;2023-07-02T06:25:23;20.70;78.70
20856;DHT22;63058;49.424;8.420;2023-07-02T06:27:49;20.70;78.60
20856;DHT22;63058;49.424;8.420;2023-07-02T06:30:14;20.70;78.60
20856;DHT22;63058;49.424;8.420;2023-07-02T06:32:40;20.80;78.20
20856;DHT22;63058;49.424;8.420;2023-07-02T06:35:06;20.80;77.60
20856;DHT22;63058;49.424;8.420;2023-07-02T06:37:33;20.90;77.40
20856;DHT22;63058;49.424;8.420;2023-07-02T06:39:59;20.90;76.50
20856;DHT22;63058;49.424;8.420;2023-07-02T06:42:25;20.90;76.50
20856;DHT22;63058;49.424;8.420;2023-07-02T06:44:51;21.00;76.10
20856;DHT22;63058;49.424;8.420;2023-07-02T06:47:16;21.00;76.00
20856;DHT22;63058;49.424;8.420;2023-07-02T06:49:42;21.10;76.30
20856;DHT22;63058;49.424;8.420;2023-07-02T06:52:07;21.10;76.30
20856;DHT22;63058;49.424;8.420;2023-07-02T06:54:33;21.10;75.70
20856;DHT22;63058;49.424;8.420;2023-07-02T06:56:59;21.20;75.80
20856;DHT22;63058;49.424;8.420;2023-07-02T06:59:25;21.20;75.50
20856;DHT22;63058;49.424;8.420;2023-07-02T07:01:50;21.30;75.90
20856;DHT22;63058;49.424;8.420;2023-07-02T07:04:16;21.30;75.20
20856;DHT22;63058;49.424;8.420;2023-07-02T07:06:42;21.40;75.00
20856;DHT22;63058;49.424;8.420;2023-07-02T07:09:08;21.40;75.40
20856;DHT22;63058;49.424;8.420;2023-07-02T07:11:34;21.50;74.90
20856;DHT22;63058;49.424;8.420;2023-07-02T07:13:59;21.60;75.00
20856;DHT22;63058;49.424;8.420;2023-07-02T07:16:25;21.60;75.20
20856;DHT22;63058;49.424;8.420;2023-07-02T07:18:51;21.70;75.30
20856;DHT22;63058;49.424;8.420;2023-07-02T07:21:17;21.70;75.50
20856;DHT22;63058;49.424;8.420;2023-07-02T07:23:42;21.80;74.40
20856;DHT22;63058;49.424;8.420;2023-07-02T07:26:08;21.90;73.90
20856;DHT22;63058;49.424;8.420;2023-07-02T07:28:33;22.00;72.50
20856;DHT22;63058;49.424;8.420;2023-07-02T07:30:59;22.00;72.80
20856;DHT22;63058;49.424;8.420;2023-07-02T07:33:24;22.10;72.30
20856;DHT22;63058;49.424;8.420;2023-07-02T07:35:50;22.20;71.60
20856;DHT22;63058;49.424;8.420;2023-07-02T07:38:15;22.30;70.40
20856;DHT22;63058;49.424;8.420;2023-07-02T07:40:43;22.40;70.90
20856;DHT22;63058;49.424;8.420;2023-07-02T07:43:08;22.40;69.60
20856;DHT22;63058;49.424;8.420;2023-07-02T07:45:34;22.50;68.60
20856;DHT22;63058;49.424;8.420;2023-07-02T07:48:00;22.50;69.20
20856;DHT22;63058;49.424;8.420;2023-07-02T07:50:25;22.60;68.70
20856;DHT22;63058;49.424;8.420;2023-07-02T07:52:51;22.70;68.80
20856;DHT22;63058;49.424;8.420;2023-07-02T07:55:17;22.70;69.20
20856;DHT22;63058;49.424;8.420;2023-07-02T07:57:42;22.80;69.20
20856;DHT22;63058;49.424;8.420;2023-07-02T08:00:08;22.90;68.40
20856;DHT22;63058;49.424;8.420;2023-07-02T08:02:37;23.00;68.20
20856;DHT22;63058;49.424;8.420;2023-07-02T08:05:03;23.10;67.00
20856;DHT22;63058;49.424;8.420;2023-07-02T08:07:31;23.10;67.10
20856;DHT22;63058;49.424;8.420;2023-07-02T08:09:56;23.20;66.90
20856;DHT22;63058;49.424;8.420;2023-07-02T08:12:22;23.20;66.60
20856;DHT22;63058;49.424;8.420;2023-07-02T08:14:49;23.20;65.60
20856;DHT22;63058;49.424;8.420;2023-07-02T08:17:14;23.30;66.40
20856;DHT22;63058;49.424;8.420;2023-07-02T08:19:40;23.30;65.80
20856;DHT22;63058;49.424;8.420;2023-07-02T08:22:05;23.40;66.20
20856;DHT22;63058;49.424;8.420;2023-07-02T08:24:31;23.50;66.80
20856;DHT22;63058;49.424;8.420;2023-07-02T08:26:57;23.50;66.10
20856;DHT22;63058;49.424;8.420;2023-07-02T08:29:23;23.60;66.00
20856;DHT22;63058;49.424;8.420;2023-07-02T08:31:48;23.70;65.60
20856;DHT22;63058;49.424;8.420;2023-07-02T08:34:14;23.70;64.60
20856;DHT22;63058;49.424;8.420;2023-07-02T08:36:40;23.80;65.40
20856;DHT22;63058;49.424;8.420;2023-07-02T08:39:05;23.80;64.90
20856;DHT22;63058;49.424;8.420;2023-07-02T08:41:41;23.80;63.90
20856;DHT22;63058;49.424;8.420;2023-07-02T08:44:09;23.90;64.00
20856;DHT22;63058;49.424;8.420;2023-07-02T08:46:35;23.90;64.20
20856;DHT22;63058;49.424;8.420;2023-07-02T08:49:00;24.00;63.60
20856;DHT22;63058;49.424;8.420;2023-07-02T08:51:26;24.00;63.70
20856;DHT22;63058;49.424;8.420;2023-07-02T08:53:51;24.00;62.80
20856;DHT22;63058;49.424;8.420;2023-07-02T08:56:17;24.00;62.80
20856;DHT22;63058;49.424;8.420;2023-07-02T08:58:42;24.00;63.30
20856;DHT22;63058;49.424;8.420;2023-07-02T09:01:10;24.10;63.20
20856;DHT22;63058;49.424;8.420;2023-07-02T09:03:36;24.10;62.70
20856;DHT22;63058;49.424;8.420;2023-07-02T09:06:06;24.20;63.30
20856;DHT22;63058;49.424;8.420;2023-07-02T09:08:32;24.20;63.20
20856;DHT22;63058;49.424;8.420;2023-07-02T09:11:08;24.30;63.30
20856;DHT22;63058;49.424;8.420;2023-07-02T09:13:48;24.40;61.10
20856;DHT22;63058;49.424;8.420;2023-07-02T09:16:21;24.50;60.60
20856;DHT22;63058;49.424;8.420;2023-07-02T09:19:01;24.60;59.40
20856;DHT22;63058;49.424;8.420;2023-07-02T09:21:31;24.50;59.80
20856;DHT22;63058;49.424;8.420;2023-07-02T09:24:18;24.60;60.40
20856;DHT22;63058;49.424;8.420;2023-07-02T09:26:49;24.60;58.30
20856;DHT22;63058;49.424;8.420;2023-07-02T09:29:21;24.70;59.90
20856;DHT22;63058;49.424;8.420;2023-07-02T09:31:48;24.80;57.80
20856;DHT22;63058;49.424;8.420;2023-07-02T09:34:14;24.90;59.40
20856;DHT22;63058;49.424;8.420;2023-07-02T09:36:40;25.00;60.30
20856;DHT22;63058;49.424;8.420;2023-07-02T09:39:14;25.00;59.30
20856;DHT22;63058;49.424;8.420;2023-07-02T09:41:41;25.20;58.20
20856;DHT22;63058;49.424;8.420;2023-07-02T09:44:08;25.40;58.60
20856;DHT22;63058;49.424;8.420;2023-07-02T09:46:37;25.50;59.00
20856;DHT22;63058;49.424;8.420;2023-07-02T09:49:13;25.60;58.90
20856;DHT22;63058;49.424;8.420;2023-07-02T09:51:40;25.60;57.40
20856;DHT22;63058;49.424;8.420;2023-07-02T09:54:06;25.80;57.30
20856;DHT22;63058;49.424;8.420;2023-07-02T09:56:31;25.80;57.70
20856;DHT22;63058;49.424;8.420;2023-07-02T09:58:57;25.80;56.80
20856;DHT22;63058;49.424;8.420;2023-07-02T10:01:22;25.90;57.20
20856;DHT22;63058;49.424;8.420;2023-07-02T10:03:48;25.90;56.20
20856;DHT22;63058;49.424;8.420;2023-07-02T10:06:14;26.00;56.70
20856;DHT22;63058;49.424;8.420;2023-07-02T10:08:39;26.10;56.40
20856;DHT22;63058;49.424;8.420;2023-07-02T10:11:11;26.10;55.80
20856;DHT22;63058;49.424;8.420;2023-07-02T10:13:39;26.10;54.10
20856;DHT22;63058;49.424;8.420;2023-07-02T10:16:05;26.00;54.30
20856;DHT22;63058;49.424;8.420;2023-07-02T10:18:31;26.00;54.70
20856;DHT22;63058;49.424;8.420;2023-07-02T10:20:57;26.10;56.00
20856;DHT22;63058;49.424;8.420;2023-07-02T10:23:43;26.10;56.30
20856;DHT22;63058;49.424;8.420;2023-07-02T10:26:15;26.30;55.10
20856;DHT22;63058;49.424;8.420;2023-07-02T10:28:42;26.40;55.90
20856;DHT22;63058;49.424;8.420;2023-07-02T10:31:18;26.60;55.10
20856;DHT22;63058;49.424;8.420;2023-07-02T10:33:44;26.70;55.00
20856;DHT22;63058;49.424;8.420;2023-07-02T10:36:18;26.90;55.20
20856;DHT22;63058;49.424;8.420;2023-07-02T10:38:43;27.00;54.70
20856;DHT22;63058;49.424;8.420;2023-07-02T10:41:09;27.30;54.80
20856;DHT22;63058;49.424;8.420;2023-07-02T10:43:34;27.40;54.20
20856;DHT22;63058;49.424;8.420;2023-07-02T10:46:00;27.60;54.70
20856;DHT22;63058;49.424;8.420;2023-07-02T10:48:26;27.90;53.30
20856;DHT22;63058;49.424;8.420;2023-07-02T10:50:51;28.10;54.40
20856;DHT22;63058;49.424;8.420;2023-07-02T10:53:18;28.40;52.90
20856;DHT22;63058;49.424;8.420;2023-07-02T10:55:44;28.70;53.80
20856;DHT22;63058;49.424;8.420;2023-07-02T10:58:11;29.00;53.20
20856;DHT22;63058;49.424;8.420;2023-07-02T11:00:44;29.30;52.90
20856;DHT22;63058;49.424;8.420;2023-07-02T11:03:21;29.60;51.30
20856;DHT22;63058;49.424;8.420;2023-07-02T11:05:47;29.80;51.30
20856;DHT22;63058;49.424;8.420;2023-07-02T11:08:13;29.80;49.50
20856;DHT22;63058;49.424;8.420;2023-07-02T11:10:39;29.80;48.90
20856;DHT22;63058;49.424;8.420;2023-07-02T11:13:12;29.70;49.00
20856;DHT22;63058;49.424;8.420;2023-07-02T11:15:37;29.50;47.50
20856;DHT22;63058;49.424;8.420;2023-07-02T11:18:14;29.30;48.80
20856;DHT22;63058;49.424;8.420;2023-07-02T11:20:40;29.30;47.40
20856;DHT22;63058;49.424;8.420;2023-07-02T11:23:20;29.40;48.60
20856;DHT22;63058;49.424;8.420;2023-07-02T11:26:00;29.30;45.30
20856;DHT22;63058;49.424;8.420;2023-07-02T11:28:28;29.40;47.10
20856;DHT22;63058;49.424;8.420;2023-07-02T11:30:54;29.60;49.30
20856;DHT22;63058;49.424;8.420;2023-07-02T11:33:33;29.80;48.40
20856;DHT22;63058;49.424;8.420;2023-07-02T11:35:59;29.90;46.80
20856;DHT22;63058;49.424;8.420;2023-07-02T11:38:24;29.90;46.10
20856;DHT22;63058;49.424;8.420;2023-07-02T11:40:50;29.90;47.10
20856;DHT22;63058;49.424;8.420;2023-07-02T11:43:15;29.80;46.80
20856;DHT22;63058;49.424;8.420;2023-07-02T11:45:41;29.70;46.60
20856;DHT22;63058;49.424;8.420;2023-07-02T11:48:07;29.60;46.20
20856;DHT22;63058;49.424;8.420;2023-07-02T11:50:32;29.40;46.50
20856;DHT22;63058;49.424;8.420;2023-07-02T11:52:58;29.40;47.30
20856;DHT22;63058;49.424;8.420;2023-07-02T11:55:23;29.20;46.70
20856;DHT22;63058;49.424;8.420;2023-07-02T11:57:49;29.40;47.90
20856;DHT22;63058;49.424;8.420;2023-07-02T12:00:15;29.40;47.40
20856;DHT22;63058;49.424;8.420;2023-07-02T12:02:40;29.70;48.50
20856;DHT22;63058;49.424;8.420;2023-07-02T12:05:06;30.00;47.80
20856;DHT22;63058;49.424;8.420;2023-07-02T12:07:34;30.40;47.60
20856;DHT22;63058;49.424;8.420;2023-07-02T12:10:00;30.80;47.70
20856;DHT22;63058;49.424;8.420;2023-07-02T12:12:25;31.10;47.50
20856;DHT22;63058;49.424;8.420;2023-07-02T12:14:51;31.30;46.20
20856;DHT22;63058;49.424;8.420;2023-07-02T12:17:16;31.60;46.80
20856;DHT22;63058;49.424;8.420;2023-07-02T12:19:42;31.80;46.40
20856;DHT22;63058;49.424;8.420;2023-07-02T12:22:08;32.00;45.10
20856;DHT22;63058;49.424;8.420;2023-07-02T12:24:33;32.20;44.10
20856;DHT22;63058;49.424;8.420;2023-07-02T12:26:59;32.40;44.80
20856;DHT22;63058;49.424;8.420;2023-07-02T12:29:25;32.50;42.70
20856;DHT22;63058;49.424;8.420;2023-07-02T12:31:50;32.50;41.60
20856;DHT22;63058;49.424;8.420;2023-07-02T12:34:16;32.30;42.20
20856;DHT22;63058;49.424;8.420;2023-07-02T12:36:41;32.30;42.00
20856;DHT22;63058;49.424;8.420;2023-07-02T12:39:07;32.30;42.60
20856;DHT22;63058;49.424;8.420;2023-07-02T12:41:33;32.20;41.70
20856;DHT22;63058;49.424;8.420;2023-07-02T12:43:59;32.10;42.40
20856;DHT22;63058;49.424;8.420;2023-07-02T12:46:25;32.10;41.10
20856;DHT22;63058;49.424;8.420;2023-07-02T12:48:50;32.10;42.20
20856;DHT22;63058;49.424;8.420;2023-07-02T12:51:16;32.10;42.40
20856;DHT22;63058;49.424;8.420;2023-07-02T12:53:41;32.30;42.90
20856;DHT22;63058;49.424;8.420;2023-07-02T12:56:07;32.40;42.10
20856;DHT22;63058;49.424;8.420;2023-07-02T12:58:32;32.50;42.80
20856;DHT22;63058;49.424;8.420;2023-07-02T13:00:58;32.60;42.40
20856;DHT22;63058;49.424;8.420;2023-07-02T13:03:23;32.80;41.90
20856;DHT22;63058;49.424;8.420;2023-07-02T13:05:50;33.00;42.40
20856;DHT22;63058;49.424;8.420;2023-07-02T13:08:15;33.20;42.80
20856;DHT22;63058;49.424;8.420;2023-07-02T13:10:41;33.60;43.60
20856;DHT22;63058;49.424;8.420;2023-07-02T13:13:07;33.90;43.10
20856;DHT22;63058;49.424;8.420;2023-07-02T13:15:33;34.30;43.20
20856;DHT22;63058;49.424;8.420;2023-07-02T13:17:59;34.60;41.00
20856;DHT22;63058;49.424;8.420;2023-07-02T13:20:25;34.90;39.80
20856;DHT22;63058;49.424;8.420;2023-07-02T13:22:51;35.00;39.60
20856;DHT22;63058;49.424;8.420;2023-07-02T13:25:16;35.00;38.40
20856;DHT22;63058;49.424;8.420;2023-07-02T13:27:42;34.80;39.00
20856;DHT22;63058;49.424;8.420;2023-07-02T13:30:08;34.70;38.20
20856;DHT22;63058;49.424;8.420;2023-07-02T13:32:33;34.50;38.50
20856;DHT22;63058;49.424;8.420;2023-07-02T13:34:59;34.40;39.20
20856;DHT22;63058;49.424;8.420;2023-07-02T13:37:24;34.40;40.00
20856;DHT22;63058;49.424;8.420;2023-07-02T13:39:51;34.50;40.00
20856;DHT22;63058;49.424;8.420;2023-07-02T13:42:17;34.60;39.10
20856;DHT22;63058;49.424;8.420;2023-07-02T13:44:43;34.70;39.50
20856;DHT22;63058;49.424;8.420;2023-07-02T13:47:09;34.70;38.40
20856;DHT22;63058;49.424;8.420;2023-07-02T13:49:36;34.60;38.60
20856;DHT22;63058;49.424;8.420;2023-07-02T13:52:02;34.60;39.20
20856;DHT22;63058;49.424;8.420;2023-07-02T13:54:27;34.50;38.50
20856;DHT22;63058;49.424;8.420;2023-07-02T13:56:53;34.50;37.90
20856;DHT22;63058;49.424;8.420;2023-07-02T13:59:19;34.40;38.30
20856;DHT22;63058;49.424;8.420;2023-07-02T14:01:46;34.50;38.20
20856;DHT22;63058;49.424;8.420;2023-07-02T14:04:12;34.60;39.80
20856;DHT22;63058;49.424;8.420;2023-07-02T14:06:38;34.80;38.50
20856;DHT22;63058;49.424;8.420;2023-07-02T14:09:04;35.00;36.60
20856;DHT22;63058;49.424;8.420;2023-07-02T14:11:31;35.10;38.10
20856;DHT22;63058;49.424;8.420;2023-07-02T14:13:57;35.30;38.20
20856;DHT22;63058;49.424;8.420;2023-07-02T14:16:23;35.50;38.30
20856;DHT22;63058;49.424;8.420;2023-07-02T14:18:49;35.70;38.60
20856;DHT22;63058;49.424;8.420;2023-07-02T14:21:15;35.90;38.60
20856;DHT22;63058;49.424;8.420;2023-07-02T14:23:41;36.20;37.10
20856;DHT22;63058;49.424;8.420;2023-07-02T14:26:06;36.30;36.70
20856;DHT22;63058;49.424;8.420;2023-07-02T14:28:34;36.40;36.50
20856;DHT22;63058;49.424;8.420;2023-07-02T14:31:03;36.50;36.20
20856;DHT22;63058;49.424;8.420;2023-07-02T14:33:31;36.60;36.90
20856;DHT22;63058;49.424;8.420;2023-07-02T14:35:58;36.70;37.20
20856;DHT22;63058;49.424;8.420;2023-07-02T14:38:24;36.90;37.10
20856;DHT22;63058;49.424;8.420;2023-07-02T14:40:50;37.00;34.70
20856;DHT22;63058;49.424;8.420;2023-07-02T14:43:17;37.00;34.60
20856;DHT22;63058;49.424;8.420;2023-07-02T14:45:48;37.00;34.50
20856;DHT22;63058;49.424;8.420;2023-07-02T14:48:15;36.80;34.70
20856;DHT22;63058;49.424;8.420;2023-07-02T14:51:00;36.70;34.90
20856;DHT22;63058;49.424;8.420;2023-07-02T14:53:28;36.50;33.80
20856;DHT22;63058;49.424;8.420;2023-07-02T14:55:55;36.20;32.70
20856;DHT22;63058;49.424;8.420;2023-07-02T14:58:22;35.70;33.10
20856;DHT22;63058;49.424;8.420;2023-07-02T15:00:51;35.30;34.60
20856;DHT22;63058;49.424;8.420;2023-07-02T15:03:17;35.10;35.50
20856;DHT22;63058;49.424;8.420;2023-07-02T15:05:46;35.00;35.20
20856;DHT22;63058;49.424;8.420;2023-07-02T15:08:12;34.90;35.50
20856;DHT22;63058;49.424;8.420;2023-07-02T15:10:39;34.90;36.20
20856;DHT22;63058;49.424;8.420;2023-07-02T15:13:08;35.00;36.70
20856;DHT22;63058;49.424;8.420;2023-07-02T15:15:35;35.30;36.80
20856;DHT22;63058;49.424;8.420;2023-07-02T15:18:04;35.60;36.10
20856;DHT22;63058;49.424;8.420;2023-07-02T15:20:30;35.80;36.80
20856;DHT22;63058;49.424;8.420;2023-07-02T15:22:55;36.10;36.60
20856;DHT22;63058;49.424;8.420;2023-07-02T15:25:21;36.40;36.50
20856;DHT22;63058;49.424;8.420;2023-07-02T15:27:47;36.70;35.90